Time;durP1;ratioP1;P1;durP2;ratioP2;P2;SDS_P1;SDS_P2;PMS_P1;PMS_P2;Temp;Humidity;BMP_temperature;BMP_pressure;BME280_temperature;BME280_humidity;BME280_pressure;Samples;Min_cycle;Max_cycle;Signal;HPM_P1;HPM_P2
2021/06/18 00:02:23;;;;;;;5.78;4.00;;;22.70;1.00;;;;;;5013473;28;20029;-71
2021/06/18 00:04:50;;;;;;;4.93;4.43;;;22.70;1.00;;;;;;5012816;28;20029;-72
2021/06/18 00:07:15;;;;;;;5.80;4.35;;;22.60;12.50;;;;;;5011475;28;20056;-72
2021/06/18 00:09:41;;;;;;;4.65;4.15;;;22.50;41.50;;;;;;5011182;28;20131;-73
2021/06/18 00:12:07;;;;;;;5.15;3.95;;;22.50;99.90;;;;;;5012684;28;20049;-72
2021/06/18 00:14:33;;;;;;;4.68;4.25;;;22.50;99.90;;;;;;5012499;28;20094;-71
2021/06/18 00:16:58;;;;;;;4.70;4.30;;;22.50;99.90;;;;;;5012782;28;20065;-73
2021/06/18 00:19:24;;;;;;;4.72;4.28;;;22.40;99.90;;;;;;5012550;28;20028;-72
2021/06/18 00:21:50;;;;;;;5.78;4.22;;;22.40;99.90;;;;;;5018916;28;20017;-72
2021/06/18 00:24:15;;;;;;;4.88;4.47;;;22.30;99.90;;;;;;5024148;28;20029;-73
2021/06/18 00:26:41;;;;;;;5.30;4.80;;;22.30;99.90;;;;;;5032242;28;20441;-73
2021/06/18 00:29:06;;;;;;;7.25;4.53;;;22.30;99.90;;;;;;5065016;22;20045;-76
2021/06/18 00:31:32;;;;;;;4.88;4.30;;;22.20;99.90;;;;;;5051795;28;20021;-75
2021/06/18 00:33:57;;;;;;;5.88;4.10;;;22.10;1.00;;;;;;5048631;28;20037;-75
2021/06/18 00:36:23;;;;;;;5.30;4.80;;;22.10;76.40;;;;;;5038798;28;20033;-75
2021/06/18 00:38:49;;;;;;;5.93;4.70;;;22.10;99.50;;;;;;5051634;28;20461;-75
2021/06/18 00:41:15;;;;;;;5.28;4.70;;;22.10;99.90;;;;;;5051661;28;20028;-75
2021/06/18 00:43:40;;;;;;;5.53;5.13;;;22.00;99.90;;;;;;5051537;28;20021;-74
2021/06/18 00:46:07;;;;;;;5.00;4.55;;;22.00;1.00;;;;;;5051726;28;20032;-76
2021/06/18 00:48:33;;;;;;;5.75;4.43;;;22.10;1.00;;;;;;5051679;28;20022;-75
2021/06/18 00:51:00;;;;;;;7.53;5.53;;;22.10;99.90;;;;;;5051736;28;20025;-75
2021/06/18 00:53:26;;;;;;;6.50;4.85;;;22.00;99.90;;;;;;5055853;28;20021;-75
2021/06/18 00:55:52;;;;;;;6.95;5.10;;;21.90;99.90;;;;;;5055473;28;20017;-75
2021/06/18 00:58:17;;;;;;;5.72;5.05;;;21.90;1.00;;;;;;5054186;28;20021;-76
2021/06/18 01:00:44;;;;;;;7.63;5.10;;;21.80;39.30;;;;;;5055629;28;20110;-76
2021/06/18 01:03:10;;;;;;;5.28;4.78;;;21.80;99.90;;;;;;5055570;28;20024;-74
2021/06/18 01:05:36;;;;;;;6.80;4.50;;;21.80;99.90;;;;;;5055301;28;20104;-76
2021/06/18 01:08:34;;;;;;;8.07;5.40;;;21.70;19.80;;;;;;5055370;28;20021;-75
2021/06/18 01:11:27;;;;;;;5.25;4.78;;;21.70;99.90;;;;;;5055295;28;20052;-75
2021/06/18 01:14:05;;;;;;;5.15;4.75;;;21.60;99.90;;;;;;5055137;28;20024;-76
2021/06/18 01:16:35;;;;;;;5.18;4.78;;;21.60;99.90;;;;;;5055022;28;20070;-76
2021/06/18 01:19:22;;;;;;;5.00;4.60;;;21.60;99.90;;;;;;5055056;28;20102;-76
2021/06/18 01:22:01;;;;;;;6.78;4.53;;;21.50;99.90;;;;;;5052234;28;20052;-75
2021/06/18 01:25:05;;;;;;;5.97;4.82;;;21.40;99.90;;;;;;5046752;28;20425;-75
2021/06/18 01:27:31;;;;;;;6.78;5.68;;;21.40;99.90;;;;;;5020315;28;20037;-75
2021/06/18 01:30:08;;;;;;;5.45;4.95;;;21.40;1.00;;;;;;5062789;28;20118;-75
2021/06/18 01:33:10;;;;;;;5.68;5.13;;;21.40;12.30;;;;;;5073495;28;20020;-76
2021/06/18 01:35:39;;;;;;;6.95;4.70;;;21.30;99.90;;;;;;5070461;28;20024;-75
2021/06/18 01:38:08;;;;;;;5.25;4.78;;;21.40;33.90;;;;;;5065123;28;20474;-75
2021/06/18 01:40:34;;;;;;;9.50;5.38;;;21.50;38.50;;;;;;5053544;28;20124;-78
2021/06/18 01:43:03;;;;;;;6.40;4.93;;;21.70;99.90;;;;;;5054534;28;20096;-76
2021/06/18 01:45:29;;;;;;;6.90;5.57;;;21.60;1.00;;;;;;5053574;28;20028;-75
2021/06/18 01:47:56;;;;;;;10.02;6.82;;;21.50;99.90;;;;;;5054592;28;20032;-76
2021/06/18 01:50:24;;;;;;;6.60;4.95;;;21.40;99.90;;;;;;5053209;28;20057;-75
2021/06/18 01:52:57;;;;;;;7.63;5.50;;;21.40;1.00;;;;;;5054361;28;20079;-75
2021/06/18 01:55:25;;;;;;;8.35;5.82;;;21.30;35.10;;;;;;5054329;28;20073;-76
2021/06/18 01:57:54;;;;;;;9.52;5.22;;;21.20;39.40;;;;;;5054167;28;20025;-75
2021/06/18 02:00:20;;;;;;;6.00;5.38;;;21.20;19.50;;;;;;5054312;28;20017;-76
2021/06/18 02:02:48;;;;;;;6.03;5.30;;;21.20;99.90;;;;;;5053712;28;20029;-75
2021/06/18 02:05:15;;;;;;;6.05;5.55;;;21.10;1.00;;;;;;5053059;28;20021;-75
2021/06/18 02:07:42;;;;;;;5.38;4.88;;;21.00;99.90;;;;;;5052726;28;20566;-75
2021/06/18 02:10:10;;;;;;;7.80;4.93;;;21.00;99.90;;;;;;5053994;28;20032;-76
2021/06/18 02:12:37;;;;;;;5.43;4.60;;;21.00;99.90;;;;;;5052808;28;20035;-75
2021/06/18 02:15:06;;;;;;;5.28;4.78;;;21.00;99.90;;;;;;5053933;28;20029;-75
2021/06/18 02:17:33;;;;;;;6.70;5.32;;;20.90;99.90;;;;;;5053861;28;20028;-75
2021/06/18 02:20:01;;;;;;;5.72;4.97;;;20.90;1.00;;;;;;5052736;28;20025;-75
2021/06/18 02:22:30;;;;;;;6.22;4.78;;;20.90;1.00;;;;;;5047563;28;20491;-76
2021/06/18 02:24:56;;;;;;;7.50;5.43;;;20.90;1.00;;;;;;5048423;28;20025;-74
2021/06/18 02:27:22;;;;;;;8.80;5.55;;;20.90;13.80;;;;;;5053919;28;20053;-75
2021/06/18 02:29:48;;;;;;;5.80;5.28;;;20.80;96.20;;;;;;5061635;28;20040;-74
2021/06/18 02:32:14;;;;;;;11.13;5.57;;;20.80;99.90;;;;;;5072615;28;20024;-76
2021/06/18 02:34:41;;;;;;;10.00;4.97;;;20.70;99.90;;;;;;5073570;28;20028;-75
2021/06/18 02:37:09;;;;;;;7.75;5.75;;;20.70;99.90;;;;;;5073518;28;20387;-75
2021/06/18 02:39:35;;;;;;;6.40;4.82;;;20.60;99.90;;;;;;5073506;28;20056;-76
2021/06/18 02:42:01;;;;;;;5.90;5.40;;;20.60;99.90;;;;;;5073570;28;20056;-76
2021/06/18 02:44:27;;;;;;;7.70;6.38;;;20.60;99.90;;;;;;5073477;28;20024;-75
2021/06/18 02:47:20;;;;;;;8.27;6.03;;;20.60;99.90;;;;;;5073405;28;20085;-76
2021/06/18 02:50:00;;;;;;;8.15;5.00;;;20.50;99.90;;;;;;5073417;28;20035;-74
2021/06/18 02:52:56;;;;;;;8.18;5.53;;;20.60;46.50;;;;;;5073604;28;20035;-75
2021/06/18 02:55:34;;;;;;;6.40;5.35;;;20.70;1.00;;;;;;5073177;28;20032;-74
2021/06/18 02:58:15;;;;;;;7.55;4.78;;;20.80;99.90;;;;;;5073053;28;20031;-75
2021/06/18 03:00:43;;;;;;;5.93;4.93;;;20.80;99.90;;;;;;5073190;28;20059;-76
2021/06/18 03:03:11;;;;;;;6.75;5.20;;;20.70;99.90;;;;;;5073525;28;20415;-75
2021/06/18 03:05:40;;;;;;;9.45;6.00;;;20.60;25.20;;;;;;5071626;28;20052;-76
2021/06/18 03:08:09;;;;;;;5.30;4.78;;;20.60;99.90;;;;;;5071648;28;20025;-77
2021/06/18 03:10:42;;;;;;;5.63;3.97;;;20.30;1.00;;;;;;5071672;28;20028;-75
2021/06/18 03:13:16;;;;;;;7.85;4.20;;;20.50;99.90;;;;;;5072884;28;20458;-75
2021/06/18 03:15:44;;;;;;;5.45;3.80;;;20.60;99.90;;;;;;5072131;28;20165;-75
2021/06/18 03:18:11;;;;;;;6.07;4.32;;;20.70;99.90;;;;;;5072982;28;20048;-75
2021/06/18 03:20:37;;;;;;;6.38;4.40;;;20.80;22.50;;;;;;5072812;28;20024;-75
2021/06/18 03:23:07;;;;;;;4.47;4.07;;;20.80;1.00;;;;;;5043252;28;20052;-75
2021/06/18 03:25:35;;;;;;;6.95;4.40;;;20.80;1.00;;;;;;5051185;28;20024;-76
2021/06/18 03:28:02;;;;;;;6.78;3.78;;;20.80;1.00;;;;;;5051269;28;20053;-76
2021/06/18 03:30:30;;;;;;;5.43;4.05;;;20.90;1.00;;;;;;5066129;28;20032;-75
2021/06/18 03:32:56;;;;;;;4.68;4.28;;;20.90;1.00;;;;;;5071234;28;20399;-76
2021/06/18 03:35:23;;;;;;;6.63;3.83;;;21.00;99.90;;;;;;5071244;28;20029;-74
2021/06/18 03:37:49;;;;;;;11.65;4.47;;;21.30;99.90;;;;;;5051929;28;20025;-75
2021/06/18 03:40:15;;;;;;;6.00;3.88;;;21.50;68.60;;;;;;5048087;28;20538;-76
2021/06/18 03:42:41;;;;;;;8.73;3.90;;;21.40;81.20;;;;;;5052421;28;20029;-75
2021/06/18 03:45:08;;;;;;;9.07;4.82;;;21.40;70.10;;;;;;5052698;28;20053;-75
2021/06/18 03:47:36;;;;;;;5.82;5.10;;;21.40;99.90;;;;;;5050908;28;20029;-75
2021/06/18 03:50:03;;;;;;;6.57;4.20;;;21.40;94.80;;;;;;5052396;28;20025;-75
2021/06/18 03:52:29;;;;;;;5.80;4.28;;;21.40;98.10;;;;;;5052278;28;20029;-75
2021/06/18 03:54:56;;;;;;;8.50;5.38;;;21.30;99.90;;;;;;5050939;28;20118;-74
2021/06/18 03:57:23;;;;;;;10.15;5.97;;;21.30;99.90;;;;;;5052069;28;20032;-75
2021/06/18 03:59:51;;;;;;;6.68;5.22;;;21.30;99.90;;;;;;5051018;28;20053;-75
2021/06/18 04:02:19;;;;;;;9.13;5.22;;;21.20;99.90;;;;;;5051999;28;20017;-76
2021/06/18 04:04:45;;;;;;;6.45;4.55;;;21.20;99.90;;;;;;5052070;28;20100;-74
2021/06/18 04:07:12;;;;;;;5.00;4.50;;;21.30;99.90;;;;;;5051755;28;20068;-75
2021/06/18 04:09:38;;;;;;;8.93;5.25;;;21.40;99.90;;;;;;5051895;28;20499;-75
2021/06/18 04:12:07;;;;;;;10.30;5.30;;;21.80;99.90;;;;;;5052057;28;20396;-74
2021/06/18 04:14:34;;;;;;;7.72;5.32;;;22.00;60.50;;;;;;5052043;28;20036;-77
2021/06/18 04:17:00;;;;;;;8.05;5.60;;;22.10;12.80;;;;;;5051807;28;20473;-76
2021/06/18 04:19:27;;;;;;;9.15;5.80;;;22.30;1.00;;;;;;5033783;28;20037;-75
2021/06/18 04:21:53;;;;;;;10.13;6.07;;;22.40;1.00;;;;;;5052784;28;20031;-75
2021/06/18 04:24:18;;;;;;;7.28;5.68;;;22.30;1.00;;;;;;5041137;28;20022;-75
2021/06/18 04:26:45;;;;;;;7.53;6.20;;;22.40;1.00;;;;;;5030439;28;20029;-74
2021/06/18 04:29:11;;;;;;;8.40;6.00;;;22.40;1.00;;;;;;5038046;28;20056;-75
2021/06/18 04:31:37;;;;;;;14.13;5.30;;;22.40;1.00;;;;;;5070411;28;20021;-75
2021/06/18 04:34:08;;;;;;;6.53;5.93;;;22.50;99.90;;;;;;5070559;28;20032;-74
2021/06/18 04:36:35;;;;;;;6.60;6.00;;;22.50;99.90;;;;;;5070339;28;20032;-75
2021/06/18 04:39:01;;;;;;;9.65;5.90;;;22.60;99.90;;;;;;5071387;28;20024;-75
2021/06/18 04:41:27;;;;;;;8.13;5.90;;;23.10;23.30;;;;;;5078971;28;20005;-75
2021/06/18 04:43:53;;;;;;;8.30;5.70;;;23.70;99.90;;;;;;5089871;28;20039;-75
2021/06/18 04:46:18;;;;;;;6.15;5.07;;;23.80;99.90;;;;;;5072886;28;20024;-74
2021/06/18 04:48:44;;;;;;;8.05;6.22;;;23.60;99.90;;;;;;5071724;28;20021;-74
2021/06/18 04:51:10;;;;;;;8.90;5.13;;;23.70;51.00;;;;;;5072479;28;20475;-75
2021/06/18 04:53:36;;;;;;;6.00;4.95;;;24.00;1.00;;;;;;5072299;28;20534;-75
2021/06/18 04:56:03;;;;;;;6.65;5.20;;;24.40;99.90;;;;;;5073368;28;20043;-74
2021/06/18 04:58:28;;;;;;;8.88;5.32;;;24.80;99.90;;;;;;5071546;28;20344;-75
2021/06/18 05:00:54;;;;;;;5.28;4.78;;;25.10;1.00;;;;;;5071406;28;20151;-76
2021/06/18 05:03:20;;;;;;;5.72;4.43;;;25.40;99.90;;;;;;5074922;28;20024;-75
2021/06/18 05:05:45;;;;;;;6.22;4.45;;;25.60;99.90;;;;;;5070204;28;20056;-76
2021/06/18 05:08:11;;;;;;;9.30;4.68;;;26.50;18.10;;;;;;5071498;28;20484;-74
2021/06/18 05:10:37;;;;;;;10.38;4.72;;;26.60;1.00;;;;;;5071311;28;20025;-77
2021/06/18 05:13:02;;;;;;;7.18;4.18;;;26.70;1.00;;;;;;5070180;28;20025;-76
2021/06/18 05:15:28;;;;;;;9.50;4.72;;;26.90;1.00;;;;;;5070049;28;20025;-75
2021/06/18 05:17:53;;;;;;;7.07;4.85;;;27.20;1.00;;;;;;5071213;28;20074;-75
2021/06/18 05:20:19;;;;;;;9.93;4.70;;;27.50;99.90;;;;;;5071309;28;20017;-76
2021/06/18 05:22:45;;;;;;;11.80;4.35;;;27.60;99.90;;;;;;5048192;28;20028;-75
2021/06/18 05:25:11;;;;;;;7.68;4.97;;;28.00;99.90;;;;;;5049074;28;20075;-75
2021/06/18 05:27:37;;;;;;;14.85;4.57;;;28.20;99.90;;;;;;5051775;28;20029;-77
2021/06/18 05:30:04;;;;;;;6.85;4.57;;;29.00;99.90;;;;;;5057001;28;20085;-76
2021/06/18 05:32:30;;;;;;;7.32;5.70;;;30.20;99.90;;;;;;5048525;28;20021;-74
2021/06/18 05:34:55;;;;;;;10.73;5.13;;;30.60;99.90;;;;;;5042591;28;20235;-76
2021/06/18 05:37:21;;;;;;;6.65;5.35;;;30.30;99.90;;;;;;5031496;28;20025;-75
2021/06/18 05:39:46;;;;;;;7.13;5.32;;;30.40;99.90;;;;;;5034752;28;20071;-75
2021/06/18 05:42:12;;;;;;;8.50;5.32;;;30.90;99.90;;;;;;5034976;28;20025;-75
2021/06/18 05:44:38;;;;;;;16.65;6.07;;;30.90;99.90;;;;;;5034993;28;20052;-76
2021/06/18 05:47:04;;;;;;;5.45;4.95;;;31.00;99.90;;;;;;5034664;28;20052;-74
2021/06/18 05:49:29;;;;;;;11.30;5.10;;;30.70;99.90;;;;;;5040533;28;20029;-75
2021/06/18 05:51:55;;;;;;;8.20;4.97;;;30.10;99.90;;;;;;5054859;28;20037;-75
2021/06/18 05:54:20;;;;;;;8.52;5.15;;;30.20;99.90;;;;;;5054679;28;20536;-76
2021/06/18 05:56:46;;;;;;;9.52;5.32;;;29.00;99.90;;;;;;5054294;28;20501;-76
2021/06/18 05:59:12;;;;;;;9.48;4.90;;;29.80;99.90;;;;;;5053022;28;20021;-76
2021/06/18 06:01:37;;;;;;;18.73;6.03;;;31.00;99.90;;;;;;5054255;28;20366;-76
2021/06/18 06:04:03;;;;;;;10.43;5.10;;;30.80;99.90;;;;;;5054423;28;20523;-75
2021/06/18 06:06:29;;;;;;;9.70;5.63;;;31.20;99.90;;;;;;5054146;28;20055;-75
2021/06/18 06:08:55;;;;;;;5.45;4.93;;;31.40;99.90;;;;;;5053983;28;20037;-76
2021/06/18 06:11:21;;;;;;;5.18;4.47;;;31.60;99.90;;;;;;5054619;28;20370;-75
2021/06/18 06:13:48;;;;;;;14.13;5.40;;;31.40;99.90;;;;;;5052688;28;20025;-75
2021/06/18 06:16:14;;;;;;;20.20;6.18;;;30.70;99.90;;;;;;5053057;28;20025;-74
2021/06/18 06:18:39;;;;;;;9.32;4.95;;;30.60;99.90;;;;;;5054171;28;20078;-76
2021/06/18 06:21:05;;;;;;;8.60;5.13;;;30.30;99.90;;;;;;5056323;28;20021;-75
2021/06/18 06:23:31;;;;;;;5.85;4.80;;;30.90;99.90;;;;;;5067381;28;20537;-75
2021/06/18 06:25:57;;;;;;;14.13;4.72;;;29.80;99.90;;;;;;5056191;28;20449;-76
2021/06/18 06:28:23;;;;;;;5.70;4.43;;;30.50;99.90;;;;;;5076673;22;20477;-72
2021/06/18 06:30:48;;;;;;;10.88;5.93;;;29.50;99.90;;;;;;5034620;28;20095;-73
2021/06/18 06:33:14;;;;;;;11.02;5.03;;;29.10;99.90;;;;;;5035046;28;20065;-73
2021/06/18 06:35:39;;;;;;;8.23;4.50;;;28.20;99.90;;;;;;5035389;28;20018;-72
2021/06/18 06:38:05;;;;;;;5.82;4.65;;;27.70;99.90;;;;;;5034419;28;20033;-72
2021/06/18 06:40:31;;;;;;;13.27;5.43;;;28.00;99.90;;;;;;5035013;28;20108;-74
2021/06/18 06:42:57;;;;;;;8.65;4.13;;;27.90;99.90;;;;;;5034723;28;20160;-72
2021/06/18 06:45:22;;;;;;;7.90;4.65;;;27.80;99.90;;;;;;5016670;28;20083;-74
2021/06/18 06:47:50;;;;;;;6.55;4.90;;;27.40;99.90;;;;;;5035079;28;20163;-73
2021/06/18 06:50:16;;;;;;;7.88;4.47;;;27.30;99.90;;;;;;5034843;28;20036;-73
2021/06/18 06:52:42;;;;;;;11.75;5.00;;;26.90;99.90;;;;;;5034571;28;20029;-73
2021/06/18 06:55:08;;;;;;;7.25;4.43;;;26.90;99.90;;;;;;5034798;28;20033;-73
2021/06/18 06:57:33;;;;;;;7.13;4.20;;;27.00;99.90;;;;;;5034404;28;20021;-72
2021/06/18 06:59:59;;;;;;;6.38;3.90;;;27.40;99.90;;;;;;5034382;28;20024;-72
2021/06/18 07:02:25;;;;;;;8.32;4.63;;;27.30;99.90;;;;;;5034950;28;20100;-73
2021/06/18 07:04:50;;;;;;;8.25;4.30;;;27.30;99.90;;;;;;5032807;28;20020;-72
2021/06/18 07:07:16;;;;;;;7.55;4.60;;;27.60;99.90;;;;;;5031425;28;20041;-74
2021/06/18 07:09:41;;;;;;;10.00;5.05;;;27.80;99.90;;;;;;5013958;28;20472;-72
2021/06/18 07:12:08;;;;;;;8.68;5.20;;;27.90;99.90;;;;;;5025595;28;20022;-73
2021/06/18 07:14:39;;;;;;;7.10;4.85;;;27.90;99.90;;;;;;5033041;28;20036;-74
2021/06/18 07:17:04;;;;;;;6.28;4.40;;;27.90;99.90;;;;;;5041375;28;20053;-74
2021/06/18 07:19:30;;;;;;;6.22;4.32;;;27.80;99.90;;;;;;5046721;28;20519;-75
2021/06/18 07:21:56;;;;;;;8.98;5.05;;;27.70;99.90;;;;;;5054320;28;20384;-76
2021/06/18 07:24:22;;;;;;;4.63;4.10;;;27.30;99.90;;;;;;5037987;28;20026;-74
2021/06/18 07:26:48;;;;;;;9.02;4.30;;;27.60;99.90;;;;;;5033629;28;20029;-75
2021/06/18 07:29:13;;;;;;;9.43;5.35;;;27.70;99.90;;;;;;5034110;28;20509;-75
2021/06/18 07:31:39;;;;;;;10.52;4.30;;;27.80;99.90;;;;;;5034513;28;20033;-77
2021/06/18 07:34:06;;;;;;;7.15;4.45;;;27.90;99.90;;;;;;5016758;28;20116;-76
2021/06/18 07:36:32;;;;;;;7.25;4.18;;;28.10;99.90;;;;;;5040328;28;20018;-75
2021/06/18 07:38:58;;;;;;;4.70;4.20;;;28.30;99.90;;;;;;5045659;28;20129;-75
2021/06/18 07:41:24;;;;;;;8.35;4.45;;;28.20;99.90;;;;;;5025442;28;20028;-76
2021/06/18 07:43:49;;;;;;;8.05;4.38;;;28.40;99.90;;;;;;5035668;28;20048;-75
2021/06/18 07:46:15;;;;;;;9.90;4.65;;;28.50;99.90;;;;;;5036995;28;20081;-77
2021/06/18 07:48:41;;;;;;;6.65;3.88;;;28.70;99.90;;;;;;5035832;28;20033;-76
2021/06/18 07:51:08;;;;;;;9.48;4.35;;;28.40;99.90;;;;;;5036737;28;20054;-75
2021/06/18 07:53:33;;;;;;;5.93;3.17;;;28.40;99.90;;;;;;5031514;28;20498;-76
2021/06/18 07:55:59;;;;;;;7.40;4.47;;;28.30;99.90;;;;;;5035527;28;20033;-77
2021/06/18 07:58:24;;;;;;;7.82;4.47;;;28.30;99.90;;;;;;5038449;28;20552;-75
2021/06/18 08:00:50;;;;;;;9.77;4.68;;;28.40;99.90;;;;;;5033388;28;20112;-75
2021/06/18 08:03:16;;;;;;;5.28;4.38;;;28.60;99.90;;;;;;5033726;28;20036;-75
2021/06/18 08:05:42;;;;;;;4.60;3.67;;;28.90;99.90;;;;;;5034913;28;20021;-75
2021/06/18 08:08:07;;;;;;;5.82;4.00;;;28.80;99.90;;;;;;5034553;28;20029;-75
2021/06/18 08:10:34;;;;;;;8.07;4.65;;;29.10;99.90;;;;;;5036580;28;20358;-76
2021/06/18 08:13:00;;;;;;;6.07;4.20;;;29.10;99.90;;;;;;5038111;28;20485;-76
2021/06/18 08:15:26;;;;;;;9.27;5.07;;;29.40;99.90;;;;;;5019610;28;20032;-76
2021/06/18 08:17:51;;;;;;;6.72;3.83;;;29.60;99.90;;;;;;5034931;28;20026;-74
2021/06/18 08:20:20;;;;;;;4.88;3.85;;;29.60;99.90;;;;;;5035311;28;20021;-75
2021/06/18 08:22:46;;;;;;;5.25;4.30;;;29.30;99.90;;;;;;5036198;28;20022;-75
2021/06/18 08:25:12;;;;;;;6.57;4.20;;;29.10;99.90;;;;;;5037923;28;20051;-76
2021/06/18 08:27:38;;;;;;;5.35;3.83;;;29.30;99.90;;;;;;5040247;28;20500;-74
2021/06/18 08:30:06;;;;;;;6.68;4.35;;;29.50;99.90;;;;;;5016956;28;20040;-74
2021/06/18 08:32:31;;;;;;;6.32;4.28;;;29.60;99.90;;;;;;5034346;28;20036;-76
2021/06/18 08:34:57;;;;;;;5.70;3.95;;;29.40;99.90;;;;;;5034430;28;20026;-75
2021/06/18 08:37:22;;;;;;;4.63;3.90;;;29.50;99.90;;;;;;5017292;28;20473;-76
2021/06/18 08:39:48;;;;;;;5.20;4.20;;;29.20;99.90;;;;;;5017478;28;20017;-77
2021/06/18 08:42:14;;;;;;;4.68;4.13;;;29.50;99.90;;;;;;5046999;28;20014;-75
2021/06/18 08:44:39;;;;;;;7.63;4.32;;;29.70;99.90;;;;;;5047846;28;20026;-73
2021/06/18 08:47:05;;;;;;;4.63;4.22;;;29.70;99.90;;;;;;5048365;28;20029;-74
2021/06/18 08:49:31;;;;;;;8.25;4.13;;;29.80;99.90;;;;;;5043801;28;20029;-74
2021/06/18 08:51:56;;;;;;;11.10;4.75;;;30.20;99.90;;;;;;5034939;28;20026;-74
2021/06/18 08:54:41;;;;;;;8.25;5.10;;;30.40;99.90;;;;;;5031665;28;20065;-74
2021/06/18 08:57:07;;;;;;;8.00;4.82;;;30.20;99.90;;;;;;5031826;28;20026;-75
2021/06/18 08:59:33;;;;;;;12.85;4.57;;;30.30;99.90;;;;;;5034666;28;20087;-74
2021/06/18 09:01:59;;;;;;;5.28;4.57;;;30.30;99.90;;;;;;5034944;28;20030;-74
2021/06/18 09:04:24;;;;;;;5.47;4.28;;;30.10;99.90;;;;;;5034338;28;20035;-76
2021/06/18 09:06:58;;;;;;;5.53;4.65;;;29.90;99.90;;;;;;5033773;28;20021;-75
2021/06/18 09:09:25;;;;;;;10.32;4.50;;;30.00;99.90;;;;;;5033033;28;20113;-75
2021/06/18 09:11:57;;;;;;;9.27;4.65;;;30.40;99.90;;;;;;5033423;28;20044;-77
2021/06/18 09:14:29;;;;;;;9.80;4.78;;;30.30;99.90;;;;;;5037452;28;20025;-77
2021/06/18 09:17:05;;;;;;;9.13;4.60;;;30.60;99.90;;;;;;5037228;28;20100;-75
2021/06/18 09:19:31;;;;;;;7.65;4.80;;;30.70;99.90;;;;;;5014027;28;20089;-75
2021/06/18 09:22:37;;;;;;;10.25;4.60;;;30.80;99.90;;;;;;5024049;28;20032;-74
2021/06/18 09:25:09;;;;;;;8.52;5.05;;;30.70;99.90;;;;;;5027473;28;20041;-75
2021/06/18 09:27:40;;;;;;;7.15;4.38;;;30.70;99.90;;;;;;5026999;28;20032;-74
2021/06/18 09:30:26;;;;;;;5.78;4.50;;;30.90;99.90;;;;;;5036982;28;20041;-75
2021/06/18 09:32:59;;;;;;;5.05;4.53;;;30.70;99.90;;;;;;5017817;28;20101;-74
2021/06/18 09:35:25;;;;;;;7.93;4.70;;;31.00;99.90;;;;;;5018374;28;20033;-76
2021/06/18 09:37:59;;;;;;;7.90;4.18;;;31.10;99.90;;;;;;5037278;28;20030;-75
2021/06/18 09:40:26;;;;;;;8.35;4.47;;;31.30;99.90;;;;;;5038372;28;20057;-75
2021/06/18 09:43:09;;;;;;;9.18;4.75;;;31.40;99.90;;;;;;5041700;28;20061;-74
2021/06/18 09:45:37;;;;;;;5.10;4.60;;;31.20;99.90;;;;;;5047131;28;20090;-73
2021/06/18 09:48:13;;;;;;;5.15;4.75;;;30.80;99.90;;;;;;5049018;28;20026;-75
2021/06/18 09:50:40;;;;;;;7.13;4.25;;;30.80;99.90;;;;;;5043269;28;20160;-76
2021/06/18 09:53:14;;;;;;;6.88;4.82;;;30.90;99.90;;;;;;5038202;28;20084;-75
2021/06/18 09:55:41;;;;;;;6.35;4.38;;;30.90;99.90;;;;;;5011112;28;20473;-75
2021/06/18 09:58:07;;;;;;;4.57;4.10;;;31.00;99.90;;;;;;5037130;28;20179;-76
2021/06/18 10:00:33;;;;;;;10.18;4.35;;;31.20;99.90;;;;;;5037438;28;20040;-74
2021/06/18 10:02:59;;;;;;;7.35;4.47;;;31.40;99.90;;;;;;5046877;28;20032;-74
2021/06/18 10:05:36;;;;;;;6.45;4.40;;;31.60;99.90;;;;;;5051889;28;20021;-75
2021/06/18 10:08:03;;;;;;;5.07;4.35;;;31.60;99.90;;;;;;5043410;28;20018;-75
2021/06/18 10:10:31;;;;;;;7.35;4.10;;;32.00;99.90;;;;;;5037830;28;20057;-74
2021/06/18 10:12:59;;;;;;;10.27;5.38;;;32.20;99.90;;;;;;5030545;28;20087;-75
2021/06/18 10:15:27;;;;;;;5.60;3.95;;;31.90;99.90;;;;;;5028939;28;20021;-74
2021/06/18 10:17:54;;;;;;;6.88;4.28;;;31.90;99.90;;;;;;5027543;28;20050;-73
2021/06/18 10:20:21;;;;;;;9.18;5.00;;;31.90;99.90;;;;;;5034683;28;20026;-74
2021/06/18 10:23:13;;;;;;;6.15;4.70;;;32.20;99.90;;;;;;5017886;28;20083;-74
2021/06/18 10:25:53;;;;;;;9.82;4.40;;;32.00;99.90;;;;;;5027442;28;20025;-76
2021/06/18 10:28:22;;;;;;;4.43;4.03;;;32.20;99.90;;;;;;5026435;28;20497;-74
2021/06/18 10:30:55;;;;;;;6.95;3.92;;;32.20;99.90;;;;;;5017143;28;20042;-76
2021/06/18 10:33:24;;;;;;;5.93;3.67;;;32.50;99.90;;;;;;5031208;28;20101;-73
2021/06/18 10:36:04;;;;;;;4.05;3.65;;;32.70;99.90;;;;;;5029205;28;20084;-74
2021/06/18 10:38:40;;;;;;;3.72;3.35;;;32.50;99.90;;;;;;5033296;28;20026;-74
2021/06/18 10:41:18;;;;;;;3.97;3.28;;;32.40;99.90;;;;;;4999118;28;20026;-73
2021/06/18 10:43:43;;;;;;;5.32;2.92;;;32.60;99.90;;;;;;5014774;28;20018;-75
2021/06/18 10:46:16;;;;;;;4.00;2.85;;;32.90;99.90;;;;;;5030107;28;20044;-77
2021/06/18 10:48:51;;;;;;;5.90;3.63;;;32.70;99.90;;;;;;5029599;28;20025;-74
2021/06/18 10:51:25;;;;;;;5.00;3.50;;;32.40;99.90;;;;;;5036275;28;20029;-73
2021/06/18 10:53:55;;;;;;;4.07;3.45;;;32.70;99.90;;;;;;5030073;28;20061;-73
2021/06/18 10:56:24;;;;;;;7.10;4.00;;;32.80;99.90;;;;;;5033165;28;20030;-72
2021/06/18 10:59:08;;;;;;;6.38;3.65;;;32.80;99.90;;;;;;5023740;28;20014;-73
2021/06/18 11:01:35;;;;;;;6.55;3.90;;;32.40;99.90;;;;;;5039062;28;20025;-72
2021/06/18 11:04:01;;;;;;;5.50;3.00;;;32.70;99.90;;;;;;5038986;28;20010;-73
2021/06/18 11:06:44;;;;;;;5.68;2.50;;;32.90;99.90;;;;;;5056783;28;20039;-74
2021/06/18 11:09:10;;;;;;;4.78;2.97;;;33.20;99.90;;;;;;5052271;28;20049;-75
2021/06/18 11:11:36;;;;;;;7.28;2.70;;;33.10;99.90;;;;;;5036169;28;20036;-74
2021/06/18 11:14:06;;;;;;;6.90;2.95;;;33.20;99.90;;;;;;5019370;28;20109;-75
2021/06/18 11:16:36;;;;;;;6.25;3.05;;;33.00;99.90;;;;;;5019693;28;20037;-75
2021/06/18 11:19:25;;;;;;;6.47;3.20;;;33.20;99.90;;;;;;5020473;28;20241;-74
2021/06/18 11:21:51;;;;;;;7.50;4.28;;;33.00;99.90;;;;;;5024850;28;20056;-74
2021/06/18 11:24:38;;;;;;;4.10;3.05;;;33.10;99.90;;;;;;5035908;28;20032;-75
2021/06/18 11:27:27;;;;;;;3.92;2.35;;;33.20;99.90;;;;;;5032297;28;20088;-75
2021/06/18 11:30:25;;;;;;;5.45;3.17;;;33.50;99.90;;;;;;5024070;28;20040;-74
2021/06/18 11:32:51;;;;;;;9.77;3.45;;;33.70;99.90;;;;;;5007034;28;20025;-77
2021/06/18 11:35:42;;;;;;;5.88;3.55;;;33.40;99.90;;;;;;5036856;28;20030;-72
2021/06/18 11:38:17;;;;;;;4.95;3.50;;;33.30;99.90;;;;;;5027137;28;20045;-75
2021/06/18 11:40:44;;;;;;;7.35;4.40;;;33.20;99.90;;;;;;5020391;28;20041;-75
2021/06/18 11:43:11;;;;;;;3.63;2.80;;;32.90;99.90;;;;;;5021251;28;20025;-74
2021/06/18 11:45:41;;;;;;;6.43;3.08;;;32.90;98.90;;;;;;5034034;28;20052;-74
2021/06/18 11:48:17;;;;;;;4.80;3.30;;;33.00;97.20;;;;;;5033229;28;20524;-73
2021/06/18 11:50:43;;;;;;;10.95;4.57;;;33.00;97.10;;;;;;5033816;28;20112;-76
2021/06/18 11:53:10;;;;;;;5.10;3.15;;;33.10;98.40;;;;;;5034316;28;20030;-73
2021/06/18 11:55:36;;;;;;;5.68;3.13;;;33.20;98.20;;;;;;5010365;28;20042;-75
2021/06/18 11:58:01;;;;;;;3.45;3.13;;;33.60;98.70;;;;;;5030036;28;20075;-74
2021/06/18 12:00:34;;;;;;;7.40;3.58;;;34.10;98.00;;;;;;5026738;28;20022;-73
2021/06/18 12:03:00;;;;;;;7.72;3.53;;;34.10;99.00;;;;;;5014749;28;20025;-80
2021/06/18 12:05:34;;;;;;;5.65;3.33;;;33.80;97.70;;;;;;5014591;28;20026;-75
2021/06/18 12:08:10;;;;;;;5.25;3.58;;;33.70;97.30;;;;;;4997984;28;20028;-78
2021/06/18 12:10:35;;;;;;;8.07;4.80;;;34.00;95.40;;;;;;5017349;28;20397;-73
2021/06/18 12:13:02;;;;;;;2.95;2.58;;;34.20;95.50;;;;;;5026883;28;20034;-74
2021/06/18 12:15:35;;;;;;;5.10;3.22;;;34.10;94.80;;;;;;5034450;28;20409;-75
2021/06/18 12:18:03;;;;;;;3.75;2.75;;;34.20;93.40;;;;;;5033938;28;20087;-74
2021/06/18 12:20:32;;;;;;;5.78;2.78;;;34.10;92.90;;;;;;5029536;28;20033;-76
2021/06/18 12:23:11;;;;;;;5.28;3.38;;;34.40;92.70;;;;;;5033246;28;20037;-74
2021/06/18 12:25:37;;;;;;;3.40;2.70;;;34.20;93.00;;;;;;5016024;28;20024;-74
2021/06/18 12:28:04;;;;;;;4.90;3.80;;;34.30;90.30;;;;;;5020051;28;20096;-75
2021/06/18 12:30:32;;;;;;;8.30;3.72;;;34.20;90.70;;;;;;5040293;22;20041;-78
2021/06/18 12:32:59;;;;;;;6.75;3.33;;;34.10;90.70;;;;;;5008788;28;20034;-78
2021/06/18 12:35:41;;;;;;;4.45;3.35;;;34.10;90.00;;;;;;5017642;28;20053;-77
2021/06/18 12:38:09;;;;;;;3.40;2.67;;;34.20;90.10;;;;;;5016549;28;20030;-77
2021/06/18 12:40:36;;;;;;;6.15;2.22;;;34.00;84.80;;;;;;5013926;28;20466;-77
2021/06/18 12:43:07;;;;;;;5.20;2.75;;;34.10;85.90;;;;;;5016686;28;20030;-78
2021/06/18 12:45:37;;;;;;;3.42;2.70;;;34.10;86.40;;;;;;5002366;28;20032;-77
2021/06/18 12:48:24;;;;;;;7.38;3.10;;;34.20;87.00;;;;;;5012862;28;20028;-77
2021/06/18 12:50:57;;;;;;;12.63;2.90;;;34.30;86.90;;;;;;5027016;28;20371;-78
2021/06/18 12:53:30;;;;;;;8.23;4.20;;;34.60;86.40;;;;;;5026570;28;20462;-78
2021/06/18 12:55:55;;;;;;;9.45;2.55;;;34.50;82.10;;;;;;5024668;28;20029;-77
2021/06/18 12:58:24;;;;;;;5.55;2.97;;;34.30;77.60;;;;;;5024085;28;20056;-76